createdAt,value
2022-09-06T00:02:00.413Z,76436.03
2022-09-06T00:04:27.614Z,76436.03
2022-09-06T00:06:54.809Z,76444.28
2022-09-06T00:09:22.085Z,76440.16
2022-09-06T00:11:49.239Z,76444.28
2022-09-06T00:14:16.360Z,76440.16
2022-09-06T00:16:43.615Z,76446.31
2022-09-06T00:19:10.751Z,76444.28
2022-09-06T00:21:37.947Z,76446.31
2022-09-06T00:24:05.089Z,76468.94
2022-09-06T00:26:32.154Z,76442.22
2022-09-06T00:28:59.336Z,76423.72
2022-09-06T00:31:26.741Z,76411.38
2022-09-06T00:33:53.880Z,76403.16
2022-09-06T00:36:21.263Z,76407.28
2022-09-06T00:38:48.377Z,76399.03
2022-09-06T00:41:15.675Z,76390.81
2022-09-06T00:43:43.020Z,76378.50
2022-09-06T00:46:10.898Z,76378.50
2022-09-06T00:48:38.421Z,76368.22
2022-09-06T00:51:06.578Z,76368.22
2022-09-06T00:53:33.696Z,76370.25
2022-09-06T00:56:00.787Z,76384.66
2022-09-06T00:58:28.018Z,76382.59
2022-09-06T01:00:56.863Z,76390.81
2022-09-06T01:03:24.349Z,76374.38
2022-09-06T01:05:59.018Z,76357.94
2022-09-06T01:08:41.509Z,76343.53
2022-09-06T01:11:23.660Z,76343.53
2022-09-06T01:14:11.124Z,76329.16
2022-09-06T01:16:57.223Z,76333.28
2022-09-06T01:19:47.480Z,76341.50
2022-09-06T01:22:14.707Z,76331.22
2022-09-06T01:25:02.210Z,76333.28
2022-09-06T01:27:38.629Z,76335.31
2022-09-06T01:30:05.834Z,76337.38
2022-09-06T01:32:36.622Z,76337.38
2022-09-06T01:35:04.061Z,76339.44
2022-09-06T01:37:31.722Z,76366.16
2022-09-06T01:39:58.951Z,76378.50
2022-09-06T01:42:26.696Z,76388.78
2022-09-06T01:45:04.950Z,76423.72
2022-09-06T01:47:50.941Z,76431.94
2022-09-06T01:50:26.830Z,76436.03
2022-09-06T01:52:59.385Z,76446.31
2022-09-06T01:55:26.440Z,76446.31
2022-09-06T01:57:56.291Z,76436.03
2022-09-06T02:00:25.056Z,76425.78
2022-09-06T02:02:52.861Z,76444.28
2022-09-06T02:05:26.318Z,76442.22
2022-09-06T02:07:54.576Z,76444.28
2022-09-06T02:10:24.855Z,76442.22
2022-09-06T02:12:52.392Z,76464.81
2022-09-06T02:15:21.774Z,76427.81
2022-09-06T02:17:53.499Z,76448.38
2022-09-06T02:20:21.088Z,76427.81
2022-09-06T02:22:48.211Z,76394.94
2022-09-06T02:25:21.692Z,76407.28
2022-09-06T02:27:48.779Z,76431.94
2022-09-06T02:30:15.979Z,76440.16
2022-09-06T02:32:44.642Z,76423.72
2022-09-06T02:35:15.084Z,76425.78
2022-09-06T02:37:42.498Z,76442.22
2022-09-06T02:40:10.439Z,76448.38
2022-09-06T02:42:39.967Z,76444.28
2022-09-06T02:45:07.277Z,76444.28
2022-09-06T02:47:35.509Z,76448.38
2022-09-06T02:50:02.601Z,76448.38
2022-09-06T02:52:29.974Z,76423.72
2022-09-06T02:54:57.067Z,76411.38
2022-09-06T02:57:24.217Z,76436.03
2022-09-06T02:59:52.080Z,76440.16
2022-09-06T03:02:19.299Z,76434.00
2022-09-06T03:04:46.448Z,76411.38
2022-09-06T03:07:13.531Z,76423.72
2022-09-06T03:09:41.663Z,76411.38
2022-09-06T03:12:08.823Z,76421.66
2022-09-06T03:14:36.194Z,76438.09
2022-09-06T03:17:03.860Z,76468.94
2022-09-06T03:19:31.199Z,76485.38
2022-09-06T03:21:58.433Z,76489.50
2022-09-06T03:24:25.560Z,76497.72
2022-09-06T03:26:52.730Z,76503.88
2022-09-06T03:29:19.883Z,76497.72
2022-09-06T03:31:46.951Z,76522.38
2022-09-06T03:34:14.026Z,76534.72
2022-09-06T03:36:41.490Z,76530.59
2022-09-06T03:39:08.876Z,76530.59
2022-09-06T03:41:36.073Z,76545.00
2022-09-06T03:44:03.181Z,76542.94
2022-09-06T03:46:30.918Z,76542.94
2022-09-06T03:48:59.558Z,76518.28
2022-09-06T03:51:26.786Z,76518.28
2022-09-06T03:53:54.280Z,76545.00
2022-09-06T03:56:21.415Z,76542.94
2022-09-06T03:58:49.002Z,76551.16
2022-09-06T04:01:16.184Z,76575.81
2022-09-06T04:03:43.321Z,76567.59
2022-09-06T04:06:10.676Z,76567.59
2022-09-06T04:08:40.239Z,76567.59
2022-09-06T04:11:07.730Z,76573.78
2022-09-06T04:13:36.375Z,76575.81
2022-09-06T04:16:04.299Z,76584.06
2022-09-06T04:18:31.669Z,76579.94
2022-09-06T04:20:58.784Z,76571.72
2022-09-06T04:23:26.230Z,76590.22
2022-09-06T04:25:54.133Z,76579.94
2022-09-06T04:28:21.320Z,76592.28
2022-09-06T04:30:55.532Z,76592.28
2022-09-06T04:33:25.894Z,76604.59
2022-09-06T04:35:57.176Z,76600.50
2022-09-06T04:38:24.678Z,76596.38
2022-09-06T04:40:51.948Z,76588.16
2022-09-06T04:43:19.189Z,76606.66
2022-09-06T04:45:46.900Z,76612.84
2022-09-06T04:48:14.512Z,76610.78
2022-09-06T04:50:41.595Z,76635.44
2022-09-06T04:53:10.915Z,76610.78
2022-09-06T04:55:38.196Z,76627.22
2022-09-06T04:58:07.654Z,76635.44
2022-09-06T05:00:35.646Z,76604.59
2022-09-06T05:03:02.782Z,76600.50
2022-09-06T05:05:29.970Z,76610.78
2022-09-06T05:07:57.097Z,76606.66
2022-09-06T05:10:26.571Z,76606.66
2022-09-06T05:12:54.525Z,76590.22
2022-09-06T05:15:22.022Z,76584.06
2022-09-06T05:17:49.160Z,76563.50
2022-09-06T05:20:16.285Z,76567.59
2022-09-06T05:22:43.727Z,76545.00
2022-09-06T05:25:10.870Z,76549.09
2022-09-06T05:27:37.960Z,76555.28
2022-09-06T05:30:05.291Z,76561.44
2022-09-06T05:32:32.410Z,76542.94
2022-09-06T05:34:59.479Z,76530.59
2022-09-06T05:37:26.661Z,76518.28
2022-09-06T05:39:54.113Z,76495.66
2022-09-06T05:42:21.283Z,76501.81
2022-09-06T05:44:48.382Z,76510.03
2022-09-06T05:47:15.641Z,76505.94
2022-09-06T05:49:42.915Z,76503.88
2022-09-06T05:52:10.109Z,76501.81
2022-09-06T05:54:37.591Z,76485.38
2022-09-06T05:57:04.677Z,76481.28
2022-09-06T05:59:32.691Z,76497.72
2022-09-06T06:02:00.519Z,76471.00
2022-09-06T06:04:29.605Z,76458.66
2022-09-06T06:06:56.829Z,76458.66
2022-09-06T06:09:23.911Z,76452.50
2022-09-06T06:11:52.885Z,76423.72
2022-09-06T06:14:20.102Z,76415.50
2022-09-06T06:16:47.236Z,76403.16
2022-09-06T06:19:14.537Z,76380.53
2022-09-06T06:21:41.690Z,76384.66
2022-09-06T06:24:08.913Z,76368.22
2022-09-06T06:26:36.461Z,76362.03
2022-09-06T06:29:04.043Z,76362.03
2022-09-06T06:31:31.923Z,76341.50
2022-09-06T06:33:59.451Z,76335.31
2022-09-06T06:36:26.938Z,76360.00
2022-09-06T06:38:54.854Z,76347.66
2022-09-06T06:41:25.707Z,76316.81
2022-09-06T06:43:53.405Z,76300.38
2022-09-06T06:46:20.630Z,76283.94
2022-09-06T06:48:52.695Z,76271.59
2022-09-06T06:51:22.220Z,76259.28
2022-09-06T06:53:49.417Z,76255.16
2022-09-06T06:56:20.259Z,76246.94
2022-09-06T06:58:48.782Z,76236.66
2022-09-06T07:01:16.339Z,76230.50
2022-09-06T07:03:43.711Z,76212.00
2022-09-06T07:06:11.108Z,76164.72
2022-09-06T07:08:38.859Z,76201.72
2022-09-06T07:11:06.432Z,76209.94
2022-09-06T07:13:36.438Z,76224.31
2022-09-06T07:16:23.077Z,76205.81
2022-09-06T07:18:53.662Z,76177.06
2022-09-06T07:21:42.342Z,76168.84
2022-09-06T07:24:10.122Z,76199.66
2022-09-06T07:26:39.033Z,76187.31
2022-09-06T07:29:07.050Z,76140.06
2022-09-06T07:34:22.152Z,76068.13
2022-09-06T07:36:52.058Z,76094.84
2022-09-06T07:39:19.151Z,76107.16
2022-09-06T07:41:46.447Z,76142.09
2022-09-06T07:44:13.577Z,76101.00
2022-09-06T07:46:40.726Z,75996.19
2022-09-06T07:49:07.889Z,75996.19
2022-09-06T07:51:35.389Z,75996.19
2022-09-06T07:54:26.406Z,76024.94
2022-09-06T07:56:49.806Z,76045.50
2022-09-06T07:59:17.079Z,76014.69
2022-09-06T08:01:44.316Z,76008.50
2022-09-06T08:04:13.163Z,75998.22
2022-09-06T08:09:32.952Z,75955.06
2022-09-06T08:12:01.238Z,75948.91
2022-09-06T08:14:28.843Z,75918.06
2022-09-06T08:16:56.984Z,75835.88
2022-09-06T08:19:24.114Z,75891.34
2022-09-06T08:21:52.809Z,75994.13
2022-09-06T08:24:20.642Z,76049.63
2022-09-06T08:26:47.784Z,76033.19
2022-09-06T08:29:14.955Z,76039.34
2022-09-06T08:31:42.573Z,75913.97
2022-09-06T08:34:12.627Z,75946.84
2022-09-06T08:36:39.834Z,76012.63
2022-09-06T08:39:07.618Z,75881.09
2022-09-06T08:41:44.846Z,75909.84
2022-09-06T08:47:01.262Z,75996.19
2022-09-06T08:49:58.197Z,75704.34
2022-09-06T08:52:34.279Z,75235.78
2022-09-06T08:55:01.457Z,75507.03
2022-09-06T08:57:40.257Z,75650.91
2022-09-06T09:00:11.071Z,75852.31
2022-09-06T09:02:42.456Z,75737.22
2022-09-06T09:05:13.912Z,75472.13
2022-09-06T09:07:45.706Z,75264.56
2022-09-06T09:10:14.511Z,74972.78
2022-09-06T09:12:44.020Z,74927.56
2022-09-06T09:15:11.577Z,75235.78
2022-09-06T09:17:39.319Z,75486.50
2022-09-06T09:20:08.682Z,75373.47
2022-09-06T09:22:36.167Z,75618.03
2022-09-06T09:25:03.644Z,75766.00
2022-09-06T09:27:31.255Z,75766.00
2022-09-06T09:32:49.571Z,75893.41
2022-09-06T09:35:21.429Z,75807.09
2022-09-06T09:37:50.607Z,75482.38
2022-09-06T09:40:25.442Z,75630.34
2022-09-06T09:42:52.921Z,75737.22
2022-09-06T09:45:26.099Z,75848.19
2022-09-06T09:47:53.468Z,75813.25
2022-09-06T09:50:27.855Z,75494.72
2022-09-06T09:52:55.233Z,75180.31
2022-09-06T09:55:23.574Z,74907.03
2022-09-06T09:57:56.645Z,74549.53
2022-09-06T10:00:33.607Z,74335.88
2022-09-06T10:03:01.276Z,74709.78
2022-09-06T10:05:28.380Z,75161.81
2022-09-06T10:07:55.833Z,75486.50
2022-09-06T10:10:52.839Z,75622.13
2022-09-06T10:13:22.631Z,75679.69
2022-09-06T10:15:50.739Z,75708.44
2022-09-06T10:18:20.870Z,75786.53
2022-09-06T10:20:51.937Z,75811.22
2022-09-06T10:26:27.702Z,75708.44
2022-09-06T10:28:58.537Z,75572.81
2022-09-06T10:31:31.781Z,75494.72
2022-09-06T10:34:10.716Z,75418.69
2022-09-06T10:36:39.502Z,75309.78
2022-09-06T10:39:15.513Z,75180.31
2022-09-06T10:41:42.627Z,75371.41
2022-09-06T10:44:28.189Z,75618.03
2022-09-06T10:47:15.581Z,75741.31
2022-09-06T10:49:46.736Z,75807.09
2022-09-06T10:52:15.323Z,75753.66
2022-09-06T10:54:42.551Z,75718.72
2022-09-06T11:00:13.330Z,75620.06
2022-09-06T11:05:56.950Z,75554.31
2022-09-06T11:11:21.524Z,75749.56
2022-09-06T11:13:49.195Z,75805.03
2022-09-06T11:16:20.423Z,75780.38
2022-09-06T11:18:47.589Z,75815.31
2022-09-06T11:21:19.475Z,75809.16
2022-09-06T11:23:48.422Z,75839.97
2022-09-06T11:26:34.778Z,75772.16
2022-09-06T11:29:03.619Z,75743.38
2022-09-06T11:34:20.430Z,75626.25
2022-09-06T11:36:48.137Z,75650.91
2022-09-06T11:39:16.708Z,75671.44
2022-09-06T11:41:43.829Z,75681.72
2022-09-06T11:44:10.975Z,75692.00
2022-09-06T11:46:57.065Z,75597.47
2022-09-06T11:49:28.185Z,75669.41
2022-09-06T11:51:55.351Z,75683.78
2022-09-06T11:54:36.124Z,75505.00
2022-09-06T11:57:12.089Z,75511.16
2022-09-06T11:59:45.936Z,75511.16
2022-09-06T12:02:32.148Z,75605.69
2022-09-06T12:05:00.485Z,75420.72
2022-09-06T12:07:28.655Z,75357.03
2022-09-06T12:09:56.206Z,75141.28
2022-09-06T12:12:44.228Z,75067.28
2022-09-06T12:15:24.125Z,74767.31
2022-09-06T12:17:51.362Z,74510.50
2022-09-06T12:20:37.347Z,74759.09
2022-09-06T12:23:04.558Z,75098.13
2022-09-06T12:25:35.336Z,75186.47
2022-09-06T12:28:02.427Z,75373.47
2022-09-06T12:30:42.117Z,75344.69
2022-09-06T12:33:27.059Z,75412.53
2022-09-06T12:38:26.234Z,75461.84
2022-09-06T12:40:58.339Z,75576.91
2022-09-06T12:43:25.686Z,75515.25
2022-09-06T12:45:52.899Z,75537.88
2022-09-06T12:48:27.538Z,75465.94
2022-09-06T12:51:02.217Z,75482.38
2022-09-06T12:53:31.561Z,75494.72
2022-09-06T12:56:02.648Z,75470.06
2022-09-06T12:58:29.820Z,75539.94
2022-09-06T13:00:56.890Z,75564.59
2022-09-06T13:03:35.646Z,75630.34
2022-09-06T13:06:04.731Z,75749.56
2022-09-06T13:08:37.928Z,75807.09
2022-09-06T13:11:10.570Z,75788.59
2022-09-06T13:13:44.458Z,75786.53
2022-09-06T13:16:11.611Z,75778.31
2022-09-06T13:18:39.722Z,75802.97
2022-09-06T13:21:07.757Z,75835.88
2022-09-06T13:23:42.133Z,75802.97
2022-09-06T13:26:09.267Z,75807.09
2022-09-06T13:28:36.698Z,75823.53
2022-09-06T13:31:05.478Z,75757.78
2022-09-06T13:33:32.998Z,75757.78
2022-09-06T13:36:12.565Z,75813.25
2022-09-06T13:38:40.049Z,75798.88
2022-09-06T13:41:13.601Z,75827.66
2022-09-06T13:43:45.066Z,75819.44
2022-09-06T13:46:12.365Z,75848.19
2022-09-06T13:48:41.622Z,75829.69
2022-09-06T13:51:09.702Z,75856.41
2022-09-06T13:53:37.547Z,75870.81
2022-09-06T13:56:08.710Z,75802.97
2022-09-06T13:58:36.402Z,75716.66
2022-09-06T14:01:04.231Z,75720.78
2022-09-06T14:03:31.761Z,75852.31
2022-09-06T14:06:00.598Z,75887.25
2022-09-06T14:08:43.385Z,75872.84
2022-09-06T14:11:15.581Z,75852.31
2022-09-06T14:13:42.703Z,75876.97
2022-09-06T14:16:09.996Z,75918.06
2022-09-06T14:18:37.422Z,75893.41
2022-09-06T14:21:05.493Z,75913.97
2022-09-06T14:23:32.626Z,75905.75
2022-09-06T14:26:00.397Z,75963.28
2022-09-06T14:28:27.608Z,75983.84
2022-09-06T14:30:55.085Z,75979.75
2022-09-06T14:33:22.394Z,75992.06
2022-09-06T14:35:49.452Z,76022.91
2022-09-06T14:38:16.611Z,76008.50
2022-09-06T14:40:44.259Z,75992.06
2022-09-06T14:43:11.785Z,76020.84
2022-09-06T14:45:38.913Z,76047.56
2022-09-06T14:48:07.129Z,76078.41
2022-09-06T14:50:34.445Z,76049.63
2022-09-06T14:53:02.089Z,76074.28
2022-09-06T14:55:30.127Z,76070.16
2022-09-06T14:57:57.968Z,76086.63
2022-09-06T15:00:25.276Z,76078.41
2022-09-06T15:02:52.543Z,76088.66
2022-09-06T15:05:19.805Z,76057.84
2022-09-06T15:07:48.002Z,76072.22
2022-09-06T15:10:15.386Z,76078.41
2022-09-06T15:12:42.478Z,76066.06
2022-09-06T15:15:10.187Z,76084.56
2022-09-06T15:17:37.652Z,76086.63
2022-09-06T15:20:05.141Z,76066.06
2022-09-06T15:22:32.326Z,76053.72
2022-09-06T15:24:59.423Z,76074.28
2022-09-06T15:27:26.470Z,76061.94
2022-09-06T15:29:53.595Z,76080.44
2022-09-06T15:32:20.703Z,76094.84
2022-09-06T15:34:47.817Z,76066.06
2022-09-06T15:37:14.937Z,76078.41
2022-09-06T15:39:42.151Z,76076.34
2022-09-06T15:42:09.332Z,76080.44
2022-09-06T15:44:36.637Z,76115.38
2022-09-06T15:47:04.974Z,76131.84
2022-09-06T15:49:32.429Z,76144.16
2022-09-06T15:52:01.007Z,76148.28
2022-09-06T15:54:46.648Z,76131.84
2022-09-06T15:57:15.103Z,76193.50
2022-09-06T15:59:42.582Z,76172.94
2022-09-06T16:02:09.837Z,76185.28
2022-09-06T16:04:37.355Z,76189.38
2022-09-06T16:07:04.581Z,76187.31
2022-09-06T16:09:31.880Z,76214.06
2022-09-06T16:11:59.627Z,76218.16
2022-09-06T16:14:28.169Z,76234.59
2022-09-06T16:16:56.489Z,76222.28
2022-09-06T16:19:25.884Z,76218.16
2022-09-06T16:21:53.004Z,76220.22
2022-09-06T16:24:45.410Z,76230.50
2022-09-06T16:27:12.521Z,76246.94
2022-09-06T16:29:39.791Z,76234.59
2022-09-06T16:32:07.707Z,76242.81
2022-09-06T16:34:35.208Z,76263.38
2022-09-06T16:37:07.805Z,76273.66
2022-09-06T16:39:35.307Z,76277.78
2022-09-06T16:42:02.789Z,76249.00
2022-09-06T16:44:29.963Z,76251.03
2022-09-06T16:47:00.962Z,76271.59
2022-09-06T16:49:28.045Z,76283.94
2022-09-06T16:51:55.417Z,76286.00
2022-09-06T16:54:22.511Z,76271.59
2022-09-06T16:56:50.861Z,76275.72
2022-09-06T16:59:18.096Z,76294.22
2022-09-06T17:01:45.672Z,76292.16
2022-09-06T17:04:13.174Z,76290.09
2022-09-06T17:06:44.722Z,76312.72
2022-09-06T17:09:13.434Z,76320.94
2022-09-06T17:11:40.573Z,76312.72
2022-09-06T17:14:07.718Z,76345.59
2022-09-06T17:16:53.777Z,76357.94
2022-09-06T17:19:21.076Z,76345.59
2022-09-06T17:21:48.164Z,76335.31
2022-09-06T17:24:15.543Z,76343.53
2022-09-06T17:26:42.728Z,76357.94
2022-09-06T17:29:10.461Z,76357.94
2022-09-06T17:31:37.990Z,76357.94
2022-09-06T17:34:05.238Z,76370.25
2022-09-06T17:36:32.590Z,76337.38
2022-09-06T17:39:06.890Z,76333.28
2022-09-06T17:41:34.733Z,76407.28
2022-09-06T17:44:02.060Z,76394.94
2022-09-06T17:46:29.361Z,76386.72
2022-09-06T17:48:56.696Z,76409.31
2022-09-06T17:51:24.414Z,76419.59
2022-09-06T17:53:52.213Z,76427.81
2022-09-06T17:56:19.983Z,76440.16
2022-09-06T17:58:57.138Z,76436.03
2022-09-06T18:01:24.532Z,76466.88
2022-09-06T18:03:52.111Z,76468.94
2022-09-06T18:06:20.502Z,76471.00
2022-09-06T18:08:50.709Z,76481.28
2022-09-06T18:11:18.828Z,76477.16
2022-09-06T18:13:48.104Z,76510.03
2022-09-06T18:16:15.290Z,76505.94
2022-09-06T18:18:43.432Z,76485.38
2022-09-06T18:21:10.776Z,76477.16
2022-09-06T18:23:37.880Z,76499.78
2022-09-06T18:26:05.948Z,76522.38
2022-09-06T18:28:33.637Z,76555.28
2022-09-06T18:31:04.805Z,76565.56
2022-09-06T18:33:31.902Z,76553.22
2022-09-06T18:36:01.820Z,76538.81
2022-09-06T18:38:29.387Z,76534.72
2022-09-06T18:40:57.274Z,76542.94
2022-09-06T18:43:27.197Z,76545.00
2022-09-06T18:46:00.126Z,76551.16
2022-09-06T18:48:28.913Z,76571.72
2022-09-06T18:50:59.750Z,76569.66
2022-09-06T18:53:27.756Z,76559.38
2022-09-06T18:55:54.874Z,76575.81
2022-09-06T18:58:22.247Z,76588.16
2022-09-06T19:00:50.924Z,76600.50
2022-09-06T19:03:18.358Z,76604.59
2022-09-06T19:05:45.544Z,76612.84
2022-09-06T19:08:13.302Z,76610.78
2022-09-06T19:10:40.485Z,76621.06
2022-09-06T19:13:07.652Z,76625.16
2022-09-06T19:15:34.865Z,76641.59
2022-09-06T19:18:03.077Z,76625.16
2022-09-06T19:20:30.312Z,76621.06
2022-09-06T19:22:57.404Z,76637.50
2022-09-06T19:25:24.860Z,76608.72
2022-09-06T19:27:52.368Z,76588.16
2022-09-06T19:30:19.938Z,76579.94
2022-09-06T19:32:47.611Z,76575.81
2022-09-06T19:35:14.862Z,76575.81
2022-09-06T19:37:41.964Z,76557.31
2022-09-06T19:40:09.425Z,76565.56
2022-09-06T19:42:37.364Z,76534.72
2022-09-06T19:45:04.764Z,76526.50
2022-09-06T19:47:31.943Z,76526.50
2022-09-06T19:49:59.193Z,76528.53
2022-09-06T19:52:26.453Z,76522.38
2022-09-06T19:54:53.900Z,76528.53
2022-09-06T19:57:21.002Z,76542.94
2022-09-06T19:59:48.740Z,76547.06
2022-09-06T20:02:16.009Z,76528.53
2022-09-06T20:04:43.321Z,76534.72
2022-09-06T20:07:10.665Z,76522.38
2022-09-06T20:09:37.861Z,76520.31
2022-09-06T20:12:05.734Z,76530.59
2022-09-06T20:14:33.154Z,76522.38
2022-09-06T20:17:22.712Z,76516.22
2022-09-06T20:19:48.265Z,76503.88
2022-09-06T20:22:15.434Z,76497.72
2022-09-06T20:24:42.538Z,76524.44
2022-09-06T20:27:09.612Z,76510.03
2022-09-06T20:29:37.171Z,76530.59
2022-09-06T20:32:04.524Z,76522.38
2022-09-06T20:34:31.998Z,76508.00
2022-09-06T20:36:59.230Z,76505.94
2022-09-06T20:39:26.408Z,76497.72
2022-09-06T20:41:53.572Z,76526.50
2022-09-06T20:44:20.775Z,76530.59
2022-09-06T20:46:48.229Z,76514.16
2022-09-06T20:49:15.854Z,76503.88
2022-09-06T20:51:43.382Z,76505.94
2022-09-06T20:54:10.536Z,76510.03
2022-09-06T20:56:38.150Z,76530.59
2022-09-06T20:59:06.796Z,76567.59
2022-09-06T21:01:36.431Z,76563.50
2022-09-06T21:04:04.271Z,76586.09
2022-09-06T21:06:33.758Z,76604.59
2022-09-06T21:09:00.868Z,76596.38
2022-09-06T21:11:28.503Z,76600.50
2022-09-06T21:13:56.395Z,76625.16
2022-09-06T21:16:27.767Z,76608.72
2022-09-06T21:18:58.793Z,76621.06
2022-09-06T21:21:26.309Z,76623.09
2022-09-06T21:23:53.815Z,76625.16
2022-09-06T21:26:21.814Z,76641.59
2022-09-06T21:28:49.258Z,76637.50
2022-09-06T21:31:17.646Z,76641.59
2022-09-06T21:33:48.728Z,76653.94
2022-09-06T21:36:16.532Z,76662.16
2022-09-06T21:38:45.411Z,76658.06
2022-09-06T21:41:13.553Z,76670.38
2022-09-06T21:43:40.814Z,76686.84
2022-09-06T21:46:09.048Z,76707.41
2022-09-06T21:48:37.293Z,76701.22
2022-09-06T21:51:06.196Z,76709.44
2022-09-06T21:53:33.700Z,76719.72
2022-09-06T21:56:01.368Z,76740.28
2022-09-06T21:58:29.628Z,76744.41
2022-09-06T22:01:00.597Z,76723.84
2022-09-06T22:03:28.716Z,76723.84
2022-09-06T22:05:56.011Z,76723.84
2022-09-06T22:08:23.163Z,76727.94
2022-09-06T22:10:50.282Z,76723.84
2022-09-06T22:13:18.648Z,76725.91
2022-09-06T22:15:45.918Z,76732.06
2022-09-06T22:18:13.638Z,76740.28
2022-09-06T22:20:40.781Z,76744.41
2022-09-06T22:23:08.475Z,76748.50
2022-09-06T22:25:36.930Z,76754.69
2022-09-06T22:28:04.242Z,76764.97
2022-09-06T22:30:31.453Z,76764.97
2022-09-06T22:32:58.828Z,76764.97
2022-09-06T22:35:26.305Z,76781.41
2022-09-06T22:37:53.367Z,76785.50
2022-09-06T22:40:20.581Z,76797.84
2022-09-06T22:42:47.693Z,76801.97
2022-09-06T22:45:14.778Z,76810.19
2022-09-06T22:47:41.848Z,76810.19
2022-09-06T22:50:09.370Z,76810.19
2022-09-06T22:52:37.853Z,76826.63
2022-09-06T22:55:05.494Z,76828.69
2022-09-06T22:57:32.573Z,76822.50
2022-09-06T23:00:00.093Z,76822.50
2022-09-06T23:02:28.022Z,76830.75
2022-09-06T23:04:56.098Z,76841.03
2022-09-06T23:07:23.272Z,76838.97
2022-09-06T23:09:52.540Z,76838.97
2022-09-06T23:12:19.788Z,76838.97
2022-09-06T23:14:47.114Z,76832.78
2022-09-06T23:17:14.793Z,76830.75
2022-09-06T23:19:41.874Z,76838.97
2022-09-06T23:22:08.929Z,76843.06
2022-09-06T23:24:36.348Z,76843.06
2022-09-06T23:27:04.825Z,76834.84
2022-09-06T23:29:32.193Z,76843.06
2022-09-06T23:31:59.292Z,76847.19
2022-09-06T23:34:26.619Z,76838.97
2022-09-06T23:36:54.194Z,76843.06
2022-09-06T23:39:21.312Z,76847.19
2022-09-06T23:41:48.402Z,76855.41
2022-09-06T23:44:15.467Z,76855.41
2022-09-06T23:46:43.096Z,76867.75
2022-09-06T23:49:10.201Z,76857.47
2022-09-06T23:51:37.423Z,76865.69
2022-09-06T23:54:04.569Z,76886.25
2022-09-06T23:56:31.677Z,76896.53
2022-09-06T23:58:58.784Z,76888.31
